Time;durP1;ratioP1;P1;durP2;ratioP2;P2;SDS_P1;SDS_P2;PMS_P1;PMS_P2;Temp;Humidity;BMP_temperature;BMP_pressure;BME280_temperature;BME280_humidity;BME280_pressure;Samples;Min_cycle;Max_cycle;Signal;HPM_P1;HPM_P2
2021/06/23 00:00:38;;;;;;;;;34.00;32.00;;;;;16.50;62.83;101566.47;6279459;22;45425;-89
2021/06/23 00:03:04;;;;;;;;;35.25;28.50;;;;;16.51;63.00;101567.31;6278731;22;46572;-89
2021/06/23 00:05:29;;;;;;;;;35.25;31.75;;;;;16.48;63.21;101564.84;6278603;22;45320;-89
2021/06/23 00:07:55;;;;;;;;;33.25;31.00;;;;;16.49;63.18;101566.53;6279127;22;45129;-89
2021/06/23 00:10:20;;;;;;;;;29.00;27.75;;;;;16.47;63.61;101571.03;6279389;22;45292;-89
2021/06/23 00:12:47;;;;;;;;;38.75;33.75;;;;;16.46;63.27;101559.66;6307215;22;45458;-89
2021/06/23 00:15:16;;;;;;;;;33.75;30.50;;;;;16.43;63.38;101560.66;6306592;22;45301;-89
2021/06/23 00:17:43;;;;;;;;;33.75;31.25;;;;;16.45;63.16;101567.59;6278846;22;45397;-89
2021/06/23 00:20:09;;;;;;;;;37.75;32.75;;;;;16.42;63.45;101558.09;6307485;22;45327;-89
2021/06/23 00:22:35;;;;;;;;;35.00;30.75;;;;;16.44;63.48;101569.41;6306158;22;45229;-89
2021/06/23 00:25:01;;;;;;;;;40.25;34.00;;;;;16.42;63.35;101564.19;6278845;22;45409;-88
2021/06/23 00:27:26;;;;;;;;;36.75;32.75;;;;;16.43;63.53;101570.28;6277622;22;45266;-88
2021/06/23 00:29:52;;;;;;;;;33.75;32.25;;;;;16.40;63.34;101576.53;6307491;22;45325;-89
2021/06/23 00:32:21;;;;;;;;;37.50;33.75;;;;;16.36;63.43;101568.88;6278673;22;47241;-89
2021/06/23 00:34:48;;;;;;;;;32.50;30.75;;;;;16.30;63.14;101563.00;6278690;22;46178;-88
2021/06/23 00:37:14;;;;;;;;;32.00;29.00;;;;;16.26;63.63;101565.84;6277694;22;45385;-89
2021/06/23 00:39:39;;;;;;;;;34.25;32.50;;;;;16.23;63.52;101566.84;6278595;22;45493;-89
2021/06/23 00:42:08;;;;;;;;;32.25;31.00;;;;;16.23;63.72;101571.22;6304921;22;47331;-88
2021/06/23 00:44:35;;;;;;;;;31.50;28.50;;;;;16.26;63.79;101573.72;6278905;22;45408;-89
2021/06/23 00:47:00;;;;;;;;;33.25;31.00;;;;;16.26;63.63;101576.34;6278285;22;45368;-90
2021/06/23 00:49:32;;;;;;;;;32.75;28.50;;;;;16.25;63.76;101572.88;6306992;22;45476;-89
2021/06/23 00:52:00;;;;;;;;;29.00;27.25;;;;;16.24;63.48;101573.78;6306840;22;45744;-89
2021/06/23 00:54:26;;;;;;;;;33.50;30.25;;;;;16.25;64.15;101577.28;6306482;22;45378;-89
2021/06/23 00:56:51;;;;;;;;;29.25;28.00;;;;;16.27;63.86;101578.06;6307016;22;45420;-89
2021/06/23 00:59:17;;;;;;;;;28.25;27.25;;;;;16.23;63.65;101584.38;6278838;22;45487;-89
2021/06/23 01:01:43;;;;;;;;;25.25;23.50;;;;;16.21;63.64;101586.22;6278622;22;48077;-89
2021/06/23 01:04:09;;;;;;;;;36.25;32.00;;;;;16.23;63.84;101581.75;6306788;22;45332;-89
2021/06/23 01:06:35;;;;;;;;;29.25;27.25;;;;;16.24;63.82;101589.56;6278894;22;45307;-89
2021/06/23 01:09:02;;;;;;;;;27.25;25.50;;;;;16.21;63.77;101586.22;6278658;22;45168;-89
2021/06/23 01:11:28;;;;;;;;;27.00;27.00;;;;;16.20;63.68;101587.97;6304741;22;46782;-89
2021/06/23 01:13:59;;;;;;;;;26.25;24.50;;;;;16.21;63.82;101586.22;6278710;22;45457;-89
2021/06/23 01:16:28;;;;;;;;;30.25;28.00;;;;;16.16;63.76;101584.66;6304923;22;45271;-89
2021/06/23 01:18:55;;;;;;;;;33.75;32.00;;;;;16.19;63.87;101583.66;6278636;22;45428;-89
2021/06/23 01:21:20;;;;;;;;;30.50;30.50;;;;;16.20;63.68;101584.53;6278291;22;47537;-89
2021/06/23 01:23:46;;;;;;;;;30.00;29.00;;;;;16.20;63.88;101579.28;6278381;22;45590;-89
2021/06/23 01:26:11;;;;;;;;;32.75;26.75;;;;;16.18;63.88;101579.34;6278628;22;45295;-89
2021/06/23 01:28:39;;;;;;;;;32.00;29.25;;;;;16.18;63.62;101579.34;6305008;22;45376;-88
2021/06/23 01:31:04;;;;;;;;;28.25;27.75;;;;;16.14;63.71;101575.13;6277903;22;47223;-89
2021/06/23 01:33:31;;;;;;;;;30.00;28.75;;;;;16.12;63.73;101583.09;6278728;22;45151;-89
2021/06/23 01:35:57;;;;;;;;;30.00;27.00;;;;;16.09;63.72;101583.25;6278675;22;45538;-89
2021/06/23 01:38:23;;;;;;;;;32.00;31.25;;;;;16.11;63.77;101585.81;6306861;22;45302;-89
2021/06/23 01:40:52;;;;;;;;;33.00;30.75;;;;;16.09;63.87;101585.00;6277719;22;48023;-89
2021/06/23 01:43:18;;;;;;;;;34.00;30.50;;;;;16.09;63.95;101588.50;6306386;22;45357;-89
2021/06/23 01:45:46;;;;;;;;;30.25;25.25;;;;;16.11;63.85;101589.25;6306854;22;45262;-89
2021/06/23 01:48:18;;;;;;;;;31.25;27.25;;;;;16.10;63.67;101589.34;6278855;22;45235;-89
2021/06/23 01:51:01;;;;;;;;;29.50;25.75;;;;;16.13;63.87;101583.94;6306123;22;45369;-89
2021/06/23 01:53:28;;;;;;;;;32.00;31.00;;;;;16.11;63.68;101578.75;6306415;22;45407;-89
2021/06/23 01:55:54;;;;;;;;;35.00;30.25;;;;;16.12;63.52;101577.00;6306132;22;45553;-88
2021/06/23 01:58:21;;;;;;;;;34.50;29.25;;;;;16.10;63.94;101573.59;6278771;22;45340;-89
2021/06/23 02:01:21;;;;;;;;;29.25;29.00;;;;;16.11;63.93;101572.69;6277970;22;48097;-88
2021/06/23 02:04:04;;;;;;;;;33.00;30.00;;;;;16.12;63.76;101571.75;6210216;22;45285;-89
2021/06/23 02:06:54;;;;;;;;;32.00;28.00;;;;;16.10;63.97;101571.81;6210777;22;44791;-90
2021/06/23 02:09:56;;;;;;;;;30.50;27.50;;;;;16.10;63.94;101573.59;6210621;22;45408;-89
2021/06/23 02:12:25;;;;;;;;;29.00;29.00;;;;;16.10;64.21;101576.22;6184546;22;48096;-89
2021/06/23 02:15:00;;;;;;;;;36.00;32.25;;;;;16.06;64.14;101567.63;6184968;22;45387;-89
2021/06/23 02:17:28;;;;;;;;;38.25;31.25;;;;;16.06;63.99;101579.91;6210364;22;45260;-88
2021/06/23 02:19:55;;;;;;;;;33.75;30.25;;;;;16.02;63.81;101573.94;6211542;22;45358;-88
2021/06/23 02:22:26;;;;;;;;;29.00;28.25;;;;;15.99;63.89;101567.06;6210010;22;47118;-89
2021/06/23 02:24:55;;;;;;;;;32.25;30.50;;;;;15.98;64.21;101569.75;6209977;22;45250;-88
2021/06/23 02:27:22;;;;;;;;;29.25;27.75;;;;;16.01;64.05;101575.72;6210183;22;45553;-89
2021/06/23 02:29:49;;;;;;;;;35.25;32.75;;;;;16.02;63.84;101574.78;6211059;22;45350;-89
2021/06/23 02:32:18;;;;;;;;;35.50;31.75;;;;;16.01;63.98;101572.22;6184943;22;48436;-88
2021/06/23 02:34:48;;;;;;;;;30.50;28.25;;;;;16.03;63.99;101576.47;6210428;22;44925;-89
2021/06/23 02:37:15;;;;;;;;;34.75;28.75;;;;;16.02;63.93;101580.03;6210889;22;45273;-89
2021/06/23 02:39:40;;;;;;;;;34.50;32.25;;;;;16.05;63.96;101586.09;6221388;22;45482;-89
2021/06/23 02:42:07;;;;;;;;;35.75;31.00;;;;;16.03;63.71;101583.53;6279281;22;47522;-89
2021/06/23 02:44:33;;;;;;;;;38.00;31.75;;;;;16.05;63.82;101579.03;6306982;22;45242;-89
2021/06/23 02:46:59;;;;;;;;;34.00;31.75;;;;;16.08;63.87;101591.19;6279680;22;45395;-89
2021/06/23 02:49:25;;;;;;;;;27.50;26.25;;;;;16.07;63.91;101589.47;6279926;22;45220;-89
2021/06/23 02:51:52;;;;;;;;;34.50;31.50;;;;;16.07;63.73;101589.47;6279263;22;47229;-89
2021/06/23 02:54:19;;;;;;;;;31.50;30.25;;;;;16.06;63.75;101585.16;6279120;22;45625;-89
2021/06/23 02:56:46;;;;;;;;;33.00;30.50;;;;;16.05;63.92;101584.28;6306485;22;45342;-89
2021/06/23 02:59:14;;;;;;;;;28.25;26.50;;;;;16.04;63.96;101587.84;6279501;22;45473;-89
2021/06/23 03:01:40;;;;;;;;;31.75;28.75;;;;;16.05;63.94;101584.28;6307196;22;45409;-89
2021/06/23 03:04:08;;;;;;;;;28.25;27.50;;;;;16.02;63.51;101582.66;6279106;22;45440;-89
2021/06/23 03:06:33;;;;;;;;;36.25;31.00;;;;;16.00;64.00;101584.50;6306922;22;45443;-89
2021/06/23 03:08:58;;;;;;;;;32.25;30.75;;;;;15.98;63.93;101580.25;6279797;22;45479;-89
2021/06/23 03:11:24;;;;;;;;;34.00;27.25;;;;;15.96;64.10;101582.09;6306621;22;46139;-88
2021/06/23 03:13:49;;;;;;;;;36.25;30.50;;;;;15.98;64.04;101583.72;6307351;22;45260;-89
2021/06/23 03:16:15;;;;;;;;;32.00;28.50;;;;;15.97;63.94;101574.13;6307288;22;45419;-88
2021/06/23 03:18:40;;;;;;;;;29.25;27.50;;;;;15.96;64.05;101574.22;6307688;22;45243;-89
2021/06/23 03:21:07;;;;;;;;;31.00;28.50;;;;;15.96;63.74;101577.69;6306476;22;45791;-89
2021/06/23 03:23:33;;;;;;;;;31.00;27.25;;;;;15.97;64.14;101576.75;6279170;22;45436;-89
2021/06/23 03:25:59;;;;;;;;;30.00;26.25;;;;;15.96;64.30;101572.44;6279260;22;45512;-90
2021/06/23 03:28:25;;;;;;;;;28.75;24.75;;;;;15.97;63.99;101575.94;6307220;22;45397;-89
2021/06/23 03:30:51;;;;;;;;;30.00;26.25;;;;;15.95;64.03;101576.00;6279294;22;47100;-89
2021/06/23 03:33:17;;;;;;;;;28.00;25.75;;;;;15.95;64.13;101572.50;6307215;22;45345;-89
2021/06/23 03:35:42;;;;;;;;;27.75;24.50;;;;;15.97;63.97;101576.75;6279333;22;45243;-89
2021/06/23 03:38:08;;;;;;;;;26.75;26.75;;;;;15.97;64.22;101584.63;6307052;22;45464;-89
2021/06/23 03:40:33;;;;;;;;;26.75;24.00;;;;;15.98;64.01;101580.25;6279186;22;46968;-89
2021/06/23 03:42:59;;;;;;;;;23.75;21.50;;;;;15.95;64.25;101575.13;6306756;22;45375;-89
2021/06/23 03:45:24;;;;;;;;;27.00;26.00;;;;;15.97;63.99;101578.56;6305575;22;44610;-89
2021/06/23 03:47:50;;;;;;;;;28.00;26.00;;;;;15.94;64.01;101582.16;6305746;22;45652;-88
2021/06/23 03:50:17;;;;;;;;;23.50;22.25;;;;;15.97;64.30;101589.06;6278144;22;47061;-89
2021/06/23 03:52:43;;;;;;;;;20.50;20.25;;;;;15.96;64.14;101587.34;6279359;22;45299;-90
2021/06/23 03:55:19;;;;;;;;;23.25;20.50;;;;;15.94;64.37;101586.56;6307144;22;45460;-89
2021/06/23 03:57:49;;;;;;;;;19.00;19.00;;;;;15.98;64.35;101590.75;6306892;22;45309;-89
2021/06/23 04:00:16;;;;;;;;;18.25;17.75;;;;;15.97;64.21;101589.06;6304320;22;47383;-89
2021/06/23 04:02:42;;;;;;;;;25.75;23.50;;;;;15.99;64.28;101589.81;6278888;22;45297;-89
2021/06/23 04:05:10;;;;;;;;;23.75;20.50;;;;;15.99;64.25;101584.56;6278903;22;45227;-88
2021/06/23 04:07:36;;;;;;;;;21.75;21.25;;;;;15.99;64.29;101595.94;6279598;22;45356;-88
2021/06/23 04:10:02;;;;;;;;;22.25;21.75;;;;;16.00;64.23;101591.53;6278434;22;47875;-89
2021/06/23 04:12:28;;;;;;;;;21.50;19.75;;;;;15.97;64.34;101587.25;6306906;22;45597;-89
2021/06/23 04:14:54;;;;;;;;;21.50;20.00;;;;;15.94;64.50;101591.81;6305288;22;45298;-89
2021/06/23 04:17:19;;;;;;;;;23.00;19.75;;;;;15.95;64.38;101599.63;6279329;22;45195;-90
2021/06/23 04:19:44;;;;;;;;;25.00;21.75;;;;;15.93;64.10;101605.84;6278489;22;47408;-89
2021/06/23 04:22:10;;;;;;;;;21.50;19.75;;;;;15.96;64.47;101614.44;6306687;22;45187;-90
2021/06/23 04:24:35;;;;;;;;;23.00;20.25;;;;;15.95;64.31;101610.13;6279134;22;45497;-89
2021/06/23 04:27:01;;;;;;;;;21.50;20.25;;;;;15.98;64.52;101615.22;6279076;22;45572;-89
2021/06/23 04:29:26;;;;;;;;;19.50;19.00;;;;;15.98;64.24;101615.22;6307058;22;45139;-89
2021/06/23 04:31:51;;;;;;;;;24.75;18.75;;;;;15.98;64.94;101609.97;6278552;22;45326;-89
2021/06/23 04:34:17;;;;;;;;;18.75;18.25;;;;;16.00;64.57;101621.25;6307305;22;45258;-89
2021/06/23 04:36:42;;;;;;;;;17.00;16.75;;;;;15.99;64.54;101616.06;6279164;22;45416;-89
2021/06/23 04:39:08;;;;;;;;;21.00;19.50;;;;;16.00;64.43;101615.16;6306689;22;46101;-89
2021/06/23 04:41:33;;;;;;;;;20.50;19.50;;;;;15.99;64.46;101621.34;6279022;22;45292;-89
2021/06/23 04:43:59;;;;;;;;;19.00;19.00;;;;;16.01;64.45;101620.34;6305920;22;45483;-89
2021/06/23 04:46:24;;;;;;;;;21.50;18.50;;;;;16.02;64.57;101622.03;6305659;22;45387;-89
2021/06/23 04:48:50;;;;;;;;;20.00;19.00;;;;;16.03;64.39;101623.75;6306858;22;45598;-89
2021/06/23 04:51:17;;;;;;;;;24.00;22.00;;;;;16.06;64.63;101622.75;6278735;22;45591;-89
2021/06/23 04:53:42;;;;;;;;;18.00;18.00;;;;;16.06;64.29;101620.13;6305126;22;45288;-89
2021/06/23 04:56:08;;;;;;;;;19.75;18.00;;;;;16.08;64.38;101623.56;6306731;22;45643;-89
2021/06/23 04:58:33;;;;;;;;;19.75;16.50;;;;;16.06;64.32;101619.28;6278765;22;46989;-89
2021/06/23 05:00:59;;;;;;;;;15.25;14.50;;;;;16.05;64.13;101628.94;6278429;22;45418;-89
2021/06/23 05:03:24;;;;;;;;;17.75;16.25;;;;;16.05;64.43;101623.69;6306481;22;45317;-89
2021/06/23 05:05:50;;;;;;;;;22.25;21.00;;;;;16.05;64.64;101622.84;6305319;22;45451;-89
2021/06/23 05:08:15;;;;;;;;;17.50;17.50;;;;;16.06;64.41;101624.53;6306768;22;45091;-89
2021/06/23 05:10:41;;;;;;;;;20.00;18.25;;;;;16.07;64.43;101621.00;6278911;22;45764;-89
2021/06/23 05:13:06;;;;;;;;;22.00;20.50;;;;;16.11;64.15;101630.44;6278865;22;45608;-89
2021/06/23 05:15:32;;;;;;;;;20.00;18.25;;;;;16.10;64.59;101634.00;6306924;22;45369;-88
2021/06/23 05:17:58;;;;;;;;;22.50;15.75;;;;;16.07;64.53;101629.72;6278621;22;48378;-89
2021/06/23 05:20:23;;;;;;;;;15.50;13.50;;;;;16.05;64.18;101626.31;6306473;22;45561;-89
2021/06/23 05:22:50;;;;;;;;;15.50;15.25;;;;;16.07;64.58;101642.00;6278725;22;45341;-89
2021/06/23 05:25:19;;;;;;;;;19.75;18.75;;;;;16.06;64.43;101635.03;6306431;22;45352;-89
2021/06/23 05:27:45;;;;;;;;;20.25;20.25;;;;;16.07;64.43;101642.00;6306345;22;46057;-90
2021/06/23 05:30:11;;;;;;;;;14.25;13.50;;;;;16.06;64.33;101650.78;6306649;22;45348;-89
2021/06/23 05:32:37;;;;;;;;;18.25;15.75;;;;;16.04;64.25;101642.97;6278819;22;45433;-89
2021/06/23 05:35:03;;;;;;;;;21.50;18.00;;;;;16.07;64.26;101647.25;6278961;22;45263;-90
2021/06/23 05:37:28;;;;;;;;;18.25;16.75;;;;;16.09;64.21;101648.88;6277352;22;47434;-89
2021/06/23 05:39:54;;;;;;;;;21.25;17.25;;;;;16.07;64.49;101642.00;6278214;22;45361;-89
2021/06/23 05:42:20;;;;;;;;;18.75;16.75;;;;;16.09;64.35;101651.50;6278966;22;45332;-89
2021/06/23 05:44:45;;;;;;;;;12.50;12.25;;;;;16.10;64.21;101647.13;6306804;22;45306;-91
2021/06/23 05:47:11;;;;;;;;;18.25;15.75;;;;;16.12;64.31;101653.97;6278553;22;47069;-92
2021/06/23 05:49:36;;;;;;;;;17.25;17.25;;;;;16.12;64.33;101648.72;6278907;22;45786;-90
2021/06/23 05:52:03;;;;;;;;;18.75;15.50;;;;;16.12;64.23;101647.88;6278190;22;45776;-90
2021/06/23 05:54:29;;;;;;;;;19.25;17.50;;;;;16.09;64.37;101651.50;6278139;22;45520;-89
2021/06/23 05:56:54;;;;;;;;;24.25;20.25;;;;;16.06;64.17;101650.78;6277147;22;46895;-89
2021/06/23 05:59:20;;;;;;;;;20.25;17.00;;;;;16.07;64.40;101655.13;6304320;22;45230;-89
2021/06/23 06:01:45;;;;;;;;;14.25;13.25;;;;;16.07;64.15;101661.22;6278371;22;45316;-90
2021/06/23 06:04:11;;;;;;;;;17.75;15.50;;;;;16.09;64.34;101663.75;6306882;22;45227;-90
2021/06/23 06:06:36;;;;;;;;;22.75;20.50;;;;;16.09;64.30;101663.75;6278525;22;47844;-88
2021/06/23 06:09:02;;;;;;;;;16.75;16.75;;;;;16.09;64.17;101667.25;6305387;22;45242;-90
2021/06/23 06:11:28;;;;;;;;;19.50;18.75;;;;;16.09;64.40;101675.13;6277418;22;45350;-90
2021/06/23 06:13:53;;;;;;;;;20.00;18.00;;;;;16.07;64.13;101678.75;6279597;22;45342;-90
2021/06/23 06:16:19;;;;;;;;;20.00;17.75;;;;;16.07;64.14;101678.75;6279854;22;47076;-90
2021/06/23 06:18:47;;;;;;;;;18.50;17.50;;;;;16.06;64.20;101688.38;6305875;22;45871;-90
2021/06/23 06:21:14;;;;;;;;;18.00;16.25;;;;;16.05;63.86;101685.84;6278133;22;45413;-90
2021/06/23 06:23:39;;;;;;;;;19.25;18.00;;;;;16.05;63.78;101694.56;6280010;22;45343;-90
2021/06/23 06:26:07;;;;;;;;;17.25;16.50;;;;;16.05;64.25;101688.47;6279425;22;47411;-90
2021/06/23 06:28:33;;;;;;;;;19.50;18.25;;;;;16.07;64.03;101691.88;6278863;22;45617;-90
2021/06/23 06:30:59;;;;;;;;;20.25;20.25;;;;;16.08;63.75;101696.19;6280235;22;45278;-91
2021/06/23 06:33:24;;;;;;;;;24.25;21.75;;;;;16.04;63.83;101692.88;6280198;22;45319;-90
2021/06/23 06:35:50;;;;;;;;;21.75;19.25;;;;;16.04;63.85;101698.09;6279388;22;48302;-90
2021/06/23 06:38:15;;;;;;;;;18.75;18.00;;;;;16.08;64.12;101701.44;6279813;22;45550;-90
2021/06/23 06:40:41;;;;;;;;;24.75;22.50;;;;;16.07;64.02;101705.00;6307826;22;45258;-90
2021/06/23 06:43:06;;;;;;;;;17.75;17.75;;;;;16.09;64.00;101709.25;6279958;22;45372;-90
2021/06/23 06:45:32;;;;;;;;;20.00;18.50;;;;;16.12;63.90;101708.28;6278690;22;47190;-91
2021/06/23 06:47:58;;;;;;;;;21.25;18.25;;;;;16.11;63.91;101703.97;6280211;22;45403;-90
2021/06/23 06:50:26;;;;;;;;;27.25;21.25;;;;;16.15;63.63;101708.13;6280171;22;45341;-91
2021/06/23 06:52:52;;;;;;;;;19.75;19.75;;;;;16.17;63.46;101711.56;6280173;22;45399;-91
2021/06/23 06:55:23;;;;;;;;;18.50;16.25;;;;;16.19;63.66;101714.13;6279668;22;48132;-90
2021/06/23 06:57:50;;;;;;;;;19.75;18.50;;;;;16.16;63.51;101705.44;6278872;22;45215;-90
2021/06/23 07:00:17;;;;;;;;;21.50;21.00;;;;;16.21;63.33;101720.16;6279600;22;45390;-90
2021/06/23 07:02:42;;;;;;;;;22.25;20.25;;;;;16.22;63.28;101712.22;6307909;22;45354;-90
2021/06/23 07:05:08;;;;;;;;;22.50;19.75;;;;;16.25;63.30;101724.34;6279453;22;46824;-90
2021/06/23 07:07:34;;;;;;;;;26.75;22.75;;;;;16.23;63.27;101723.56;6307018;22;45384;-91
2021/06/23 07:10:00;;;;;;;;;20.50;20.25;;;;;16.16;63.29;101710.69;6307495;22;45325;-90
2021/06/23 07:12:25;;;;;;;;;23.75;21.50;;;;;16.14;63.39;101715.16;6306063;22;45283;-90
2021/06/23 07:14:51;;;;;;;;;23.00;23.00;;;;;16.14;63.27;101714.31;6279731;22;47062;-90
2021/06/23 07:17:16;;;;;;;;;22.50;19.00;;;;;16.14;63.56;101717.78;6279427;22;45304;-90
2021/06/23 07:19:42;;;;;;;;;22.25;21.75;;;;;16.20;63.47;101721.06;6279899;22;45338;-90
2021/06/23 07:22:08;;;;;;;;;21.75;21.00;;;;;16.21;63.62;101723.63;6305493;22;45384;-90
2021/06/23 07:24:33;;;;;;;;;19.75;17.75;;;;;16.23;63.44;101723.56;6278963;22;46930;-89
2021/06/23 07:26:59;;;;;;;;;18.50;17.75;;;;;16.24;63.58;101725.28;6277227;22;45257;-90
2021/06/23 07:29:30;;;;;;;;;20.25;19.75;;;;;16.22;63.64;101724.47;6278820;22;45363;-91
2021/06/23 07:32:05;;;;;;;;;19.25;15.75;;;;;16.22;63.10;101717.47;6277595;22;45380;-90
2021/06/23 07:37:10;;;;;;;;;23.50;21.25;;;;;16.27;63.06;101730.38;6307539;22;45172;-91
2021/06/23 07:39:36;;;;;;;;;22.00;20.00;;;;;16.29;63.46;101729.38;6279721;22;45183;-91
2021/06/23 07:42:03;;;;;;;;;22.00;20.75;;;;;16.30;63.33;101735.50;6272013;22;45246;-90
2021/06/23 07:44:33;;;;;;;;;16.75;16.00;;;;;16.30;63.48;101738.13;6279420;22;46879;-90
2021/06/23 07:47:01;;;;;;;;;22.50;21.50;;;;;16.30;63.32;101732.88;6279442;22;45839;-90
2021/06/23 07:49:29;;;;;;;;;20.50;20.00;;;;;16.34;63.51;101736.22;6279800;22;45268;-90
2021/06/23 07:54:57;;;;;;;;;25.50;23.75;;;;;16.29;63.55;101731.16;6306814;22;45986;-90
2021/06/23 08:08:10;;;;;;;;;24.25;20.75;;;;;16.30;63.57;101738.13;6307390;22;45220;-90
2021/06/23 08:10:50;;;;;;;;;29.50;24.75;;;;;16.38;63.53;101745.69;6307030;22;45696;-90
2021/06/23 08:13:17;;;;;;;;;24.75;22.75;;;;;16.42;63.55;101741.97;6279327;22;45424;-92
2021/06/23 08:15:46;;;;;;;;;23.25;22.50;;;;;16.43;63.59;101734.03;6278674;22;46627;-90
2021/06/23 08:18:14;;;;;;;;;26.00;25.50;;;;;16.49;63.38;101738.16;6278973;22;45308;-89
2021/06/23 08:20:39;;;;;;;;;30.00;24.50;;;;;16.50;63.15;101733.75;6279230;22;45406;-90
2021/06/23 08:23:05;;;;;;;;;30.00;28.00;;;;;16.54;63.23;101737.94;6279260;22;45565;-90
2021/06/23 08:25:31;;;;;;;;;23.50;22.50;;;;;16.56;63.16;101738.72;6276623;22;48181;-90
2021/06/23 08:27:59;;;;;;;;;20.75;19.25;;;;;16.60;63.26;101734.16;6278330;22;45405;-90
2021/06/23 08:30:25;;;;;;;;;25.75;23.75;;;;;16.61;63.13;101728.03;6278804;22;45326;-91
2021/06/23 08:32:50;;;;;;;;;25.25;22.75;;;;;16.64;62.88;101733.97;6276156;22;45633;-91
2021/06/23 08:35:16;;;;;;;;;29.50;24.50;;;;;16.64;63.19;101731.34;6273699;22;47024;-90
2021/06/23 08:37:43;;;;;;;;;26.00;23.25;;;;;16.65;62.95;101737.44;6275840;22;45332;-89
2021/06/23 08:40:11;;;;;;;;;21.50;18.25;;;;;16.67;62.82;101736.44;6279496;22;45417;-90
2021/06/23 08:42:37;;;;;;;;;18.75;18.75;;;;;16.68;62.82;101737.31;6306823;22;45385;-89
2021/06/23 08:45:04;;;;;;;;;24.50;21.25;;;;;16.70;62.92;101730.22;6276333;22;47768;-90
2021/06/23 08:47:30;;;;;;;;;20.00;20.00;;;;;16.76;62.70;101722.03;6303696;22;48840;-90
2021/06/23 08:49:57;;;;;;;;;25.00;23.00;;;;;16.81;62.47;101730.56;6278932;22;45208;-89
2021/06/23 08:52:22;;;;;;;;;26.50;24.00;;;;;16.86;62.75;101730.38;6278828;22;45172;-89
2021/06/23 08:54:54;;;;;;;;;22.00;20.25;;;;;16.89;62.79;101732.00;6278867;22;46774;-88
2021/06/23 08:57:20;;;;;;;;;24.00;21.75;;;;;16.92;62.15;101735.31;6278678;22;45258;-90
2021/06/23 08:59:46;;;;;;;;;29.75;29.25;;;;;16.96;62.31;101739.50;6307224;22;45295;-90
2021/06/23 09:02:16;;;;;;;;;22.75;22.75;;;;;16.99;62.25;101732.41;6278816;22;45451;-90
2021/06/23 09:04:59;;;;;;;;;18.25;18.25;;;;;17.03;62.05;101734.00;6279148;22;48055;-90
2021/06/23 09:07:53;;;;;;;;;21.75;20.75;;;;;17.10;62.10;101743.31;6305893;22;45379;-91
2021/06/23 09:10:18;;;;;;;;;21.50;18.75;;;;;17.14;62.11;101741.38;6278284;22;45294;-89
2021/06/23 09:13:06;;;;;;;;;19.50;19.50;;;;;17.18;61.90;101735.88;6306371;22;45352;-90
2021/06/23 09:15:56;;;;;;;;;21.50;20.50;;;;;17.22;61.96;101753.22;6302983;22;47977;-90
2021/06/23 09:18:33;;;;;;;;;21.75;18.75;;;;;17.21;61.90;101738.38;6278242;22;45365;-89
2021/06/23 09:21:05;;;;;;;;;23.50;21.50;;;;;17.22;61.50;101747.97;6278009;22;45421;-89
2021/06/23 09:23:42;;;;;;;;;22.25;21.00;;;;;17.24;61.80;101753.16;6278518;22;45395;-89
2021/06/23 09:26:12;;;;;;;;;20.25;20.25;;;;;17.25;62.08;101752.22;6306472;22;45389;-89
2021/06/23 09:28:37;;;;;;;;;19.25;18.50;;;;;17.28;61.99;101746.84;6306161;22;45443;-90
2021/06/23 09:31:06;;;;;;;;;20.50;19.50;;;;;17.31;61.87;101740.56;6279199;22;45382;-89
2021/06/23 09:33:31;;;;;;;;;22.00;20.00;;;;;17.32;61.60;101737.84;6278920;22;45529;-89
2021/06/23 09:36:01;;;;;;;;;22.50;21.25;;;;;17.38;61.40;101739.34;6306255;22;45612;-89
2021/06/23 09:38:50;;;;;;;;;21.50;21.50;;;;;17.40;61.17;101748.00;6306853;22;45229;-89
2021/06/23 09:41:29;;;;;;;;;22.25;20.75;;;;;17.39;61.61;101735.78;6277957;22;45250;-90
2021/06/23 09:44:13;;;;;;;;;25.75;22.75;;;;;17.44;61.20;101743.44;6279235;22;45210;-90
2021/06/23 09:46:41;;;;;;;;;23.75;22.00;;;;;17.45;61.44;101743.34;6306325;22;45510;-90
2021/06/23 09:49:20;;;;;;;;;22.25;22.00;;;;;17.52;61.45;101750.94;6278340;22;45309;-91
2021/06/23 09:51:45;;;;;;;;;19.25;18.25;;;;;17.57;61.05;101744.53;6277795;22;45589;-89
2021/06/23 09:54:13;;;;;;;;;19.25;18.50;;;;;17.57;61.06;101748.94;6278299;22;45425;-90
2021/06/23 09:56:47;;;;;;;;;21.50;18.50;;;;;17.61;60.99;101745.25;6306657;22;45465;-90
2021/06/23 09:59:38;;;;;;;;;19.75;19.50;;;;;17.64;61.21;101747.72;6305701;22;45192;-89
2021/06/23 10:02:19;;;;;;;;;22.50;20.75;;;;;17.68;61.12;101746.63;6306822;22;45259;-90
2021/06/23 10:04:44;;;;;;;;;21.50;19.75;;;;;17.70;60.44;101750.06;6278682;22;45386;-90
2021/06/23 10:07:10;;;;;;;;;23.25;21.25;;;;;17.72;60.58;101748.19;6277694;22;47018;-90
2021/06/23 10:09:37;;;;;;;;;23.00;21.00;;;;;17.75;60.96;101741.91;6247318;22;45526;-90
2021/06/23 10:12:08;;;;;;;;;23.00;22.25;;;;;17.78;60.95;101754.94;6273423;22;45334;-90
2021/06/23 10:14:39;;;;;;;;;21.25;20.00;;;;;17.79;60.95;101750.50;6275732;22;45253;-90
2021/06/23 10:17:05;;;;;;;;;21.25;20.75;;;;;17.79;60.74;101751.38;6246818;22;47925;-90
2021/06/23 10:19:32;;;;;;;;;18.50;18.50;;;;;17.79;60.20;101751.38;6246811;22;45297;-90
2021/06/23 10:22:02;;;;;;;;;18.50;17.25;;;;;17.77;60.35;101753.19;6274291;22;45311;-90
2021/06/23 10:24:29;;;;;;;;;18.00;18.00;;;;;17.77;60.80;101748.81;6274087;22;45282;-90
2021/06/23 10:26:57;;;;;;;;;17.25;17.00;;;;;17.76;60.80;101752.38;6274676;22;45197;-89
2021/06/23 10:29:34;;;;;;;;;20.50;18.25;;;;;17.76;60.54;101757.63;6273431;22;45195;-90
2021/06/23 10:32:01;;;;;;;;;21.00;19.75;;;;;17.75;60.80;101752.44;6246567;22;45362;-90
2021/06/23 10:34:27;;;;;;;;;20.75;19.25;;;;;17.75;60.57;101750.69;6273403;22;45495;-89
2021/06/23 10:36:54;;;;;;;;;24.25;20.50;;;;;17.78;60.77;101754.94;6274636;22;45362;-89
2021/06/23 10:39:21;;;;;;;;;23.75;20.75;;;;;17.80;60.44;101746.94;6247505;22;45373;-89
2021/06/23 10:41:52;;;;;;;;;20.75;19.00;;;;;17.82;60.41;101759.09;6272695;22;45628;-89
2021/06/23 10:44:25;;;;;;;;;19.50;19.50;;;;;17.83;60.62;101755.53;6275155;22;45386;-89
2021/06/23 10:46:57;;;;;;;;;19.75;19.25;;;;;17.85;60.37;101753.69;6246817;22;47364;-90
2021/06/23 10:49:44;;;;;;;;;20.50;18.00;;;;;17.92;60.66;101766.53;6273086;22;45390;-89
2021/06/23 10:52:21;;;;;;;;;19.00;18.25;;;;;17.92;60.79;101767.41;6274082;22;45320;-90
2021/06/23 10:54:56;;;;;;;;;26.00;22.25;;;;;17.90;60.26;101767.47;6275165;22;45385;-89
2021/06/23 10:57:33;;;;;;;;;23.00;21.75;;;;;17.90;60.56;101769.25;6273742;22;46563;-89
2021/06/23 11:00:20;;;;;;;;;23.00;21.00;;;;;17.91;60.72;101768.31;6245074;22;45227;-90
2021/06/23 11:02:49;;;;;;;;;24.00;23.25;;;;;17.94;60.62;101773.44;6244201;22;45302;-89
2021/06/23 11:05:22;;;;;;;;;22.75;21.25;;;;;17.97;60.33;101778.53;6272007;22;45404;-90
2021/06/23 11:07:52;;;;;;;;;24.75;22.50;;;;;17.97;59.93;101773.25;6245687;22;48632;-89
2021/06/23 11:10:40;;;;;;;;;23.50;22.75;;;;;17.98;60.64;101776.75;6272277;22;45420;-89
2021/06/23 11:13:08;;;;;;;;;23.75;22.50;;;;;18.00;60.32;101783.66;6244960;22;45799;-89
2021/06/23 11:15:40;;;;;;;;;18.50;17.50;;;;;17.97;59.91;101781.16;6273952;22;45420;-89
2021/06/23 11:18:23;;;;;;;;;22.25;20.50;;;;;17.96;60.44;101786.53;6244875;22;46781;-89
2021/06/23 11:20:54;;;;;;;;;21.75;19.75;;;;;17.92;60.21;101787.59;6245921;22;45363;-89
2021/06/23 11:23:40;;;;;;;;;19.75;19.50;;;;;17.97;60.40;101789.06;6272867;22;45420;-90
2021/06/23 11:26:30;;;;;;;;;23.00;21.25;;;;;17.97;60.45;101789.06;6245995;22;45424;-89
2021/06/23 11:29:18;;;;;;;;;21.75;21.75;;;;;17.99;60.09;101796.88;6253067;22;45517;-89
2021/06/23 11:31:45;;;;;;;;;25.25;23.25;;;;;18.00;60.11;101799.44;6245271;22;45458;-89